Time;durP1;ratioP1;P1;durP2;ratioP2;P2;SDS_P1;SDS_P2;PMS_P1;PMS_P2;Temp;Humidity;BMP_temperature;BMP_pressure;BME280_temperature;BME280_humidity;BME280_pressure;Samples;Min_cycle;Max_cycle;Signal;HPM_P1;HPM_P2
2021/11/03 00:02:02;;;;;;;41.90;15.90;;;;;;;;;;769882;180;919167;-61
2021/11/03 00:04:27;;;;;;;211.83;33.37;;;;;;;;;;769180;180;919118;-61
2021/11/03 00:06:53;;;;;;;90.53;20.60;;;;;;;;;;768119;180;919964;-63
2021/11/03 00:09:19;;;;;;;30.80;16.47;;;;;;;;;;772014;180;918905;-61
2021/11/03 00:11:45;;;;;;;29.57;17.60;;;;;;;;;;765787;180;919460;-61
2021/11/03 00:14:10;;;;;;;27.33;18.67;;;;;;;;;;774080;180;919968;-61
2021/11/03 00:16:36;;;;;;;30.50;16.93;;;;;;;;;;770504;180;919175;-61
2021/11/03 00:19:02;;;;;;;30.17;17.20;;;;;;;;;;768550;180;919131;-61
2021/11/03 00:21:28;;;;;;;31.53;18.47;;;;;;;;;;766312;180;918508;-60
2021/11/03 00:23:54;;;;;;;29.97;17.30;;;;;;;;;;765961;183;919305;-61
2021/11/03 00:26:20;;;;;;;28.70;19.00;;;;;;;;;;762311;181;920202;-62
2021/11/03 00:28:46;;;;;;;35.67;19.63;;;;;;;;;;771157;180;923929;-60
2021/11/03 00:31:11;;;;;;;35.07;20.73;;;;;;;;;;778915;180;911807;-61
2021/11/03 00:33:37;;;;;;;30.92;19.50;;;;;;;;;;769356;180;915631;-61
2021/11/03 00:36:03;;;;;;;40.80;20.53;;;;;;;;;;767765;180;915908;-60
2021/11/03 00:38:29;;;;;;;38.50;22.30;;;;;;;;;;774634;179;918636;-60
2021/11/03 00:40:55;;;;;;;36.47;22.77;;;;;;;;;;763757;180;919508;-61
2021/11/03 00:43:21;;;;;;;33.42;19.23;;;;;;;;;;768576;180;919126;-61
2021/11/03 00:45:47;;;;;;;42.78;21.80;;;;;;;;;;775245;180;928440;-63
2021/11/03 00:48:13;;;;;;;36.50;21.87;;;;;;;;;;772152;181;919414;-60
2021/11/03 00:50:39;;;;;;;40.47;21.20;;;;;;;;;;771195;180;919402;-60
2021/11/03 00:53:05;;;;;;;42.35;21.98;;;;;;;;;;769244;179;919223;-61
2021/11/03 00:55:31;;;;;;;38.97;22.43;;;;;;;;;;777313;179;921730;-60
2021/11/03 00:57:57;;;;;;;40.15;21.90;;;;;;;;;;766556;180;921529;-61
2021/11/03 01:00:23;;;;;;;46.13;22.73;;;;;;;;;;767121;181;920046;-60
2021/11/03 01:02:48;;;;;;;42.63;22.37;;;;;;;;;;775235;179;919597;-60
2021/11/03 01:05:14;;;;;;;49.67;26.05;;;;;;;;;;767963;179;931585;-60
2021/11/03 01:07:41;;;;;;;58.00;26.00;;;;;;;;;;762525;181;917193;-60
2021/11/03 01:10:06;;;;;;;51.27;26.10;;;;;;;;;;769766;181;917185;-61
2021/11/03 01:12:32;;;;;;;57.03;26.95;;;;;;;;;;771486;180;914704;-60
2021/11/03 01:14:58;;;;;;;53.17;25.47;;;;;;;;;;774087;180;919321;-61
2021/11/03 01:17:24;;;;;;;56.50;24.80;;;;;;;;;;769240;180;919404;-61
2021/11/03 01:19:50;;;;;;;50.50;25.27;;;;;;;;;;776726;180;919198;-61
2021/11/03 01:22:15;;;;;;;52.50;22.97;;;;;;;;;;771082;180;919500;-61
2021/11/03 01:24:41;;;;;;;48.72;21.17;;;;;;;;;;767162;180;919824;-61
2021/11/03 01:27:07;;;;;;;47.13;23.87;;;;;;;;;;775228;180;918796;-60
2021/11/03 01:29:33;;;;;;;44.90;20.40;;;;;;;;;;765802;180;919633;-61
2021/11/03 01:31:59;;;;;;;50.90;22.53;;;;;;;;;;765969;181;919368;-64
2021/11/03 01:34:25;;;;;;;44.30;20.93;;;;;;;;;;772266;177;919341;-66
2021/11/03 01:36:50;;;;;;;45.30;20.63;;;;;;;;;;764314;181;918575;-61
2021/11/03 01:39:16;;;;;;;41.77;22.20;;;;;;;;;;770806;180;918681;-60
2021/11/03 01:41:42;;;;;;;47.37;21.17;;;;;;;;;;762924;182;919669;-60
2021/11/03 01:44:09;;;;;;;57.70;21.97;;;;;;;;;;772546;181;919333;-60
2021/11/03 01:46:36;;;;;;;47.90;21.03;;;;;;;;;;764359;180;920008;-60
2021/11/03 01:49:04;;;;;;;46.97;21.53;;;;;;;;;;766333;180;918980;-61
2021/11/03 01:51:33;;;;;;;37.90;19.20;;;;;;;;;;769494;180;918531;-60
2021/11/03 01:53:59;;;;;;;37.17;19.67;;;;;;;;;;767525;180;919495;-60
2021/11/03 01:56:25;;;;;;;42.40;22.97;;;;;;;;;;763156;181;919160;-60
2021/11/03 01:58:52;;;;;;;33.90;18.17;;;;;;;;;;770154;177;918283;-61
2021/11/03 02:01:19;;;;;;;43.27;20.20;;;;;;;;;;769524;180;918811;-60
2021/11/03 02:03:44;;;;;;;40.60;18.67;;;;;;;;;;769969;179;921482;-60
2021/11/03 02:06:10;;;;;;;41.80;19.80;;;;;;;;;;771479;179;919684;-61
2021/11/03 02:08:36;;;;;;;38.07;17.30;;;;;;;;;;776733;180;918150;-60
2021/11/03 02:11:01;;;;;;;39.60;21.02;;;;;;;;;;767982;180;899747;-61
2021/11/03 02:13:27;;;;;;;52.40;19.95;;;;;;;;;;767233;179;918682;-61
2021/11/03 02:15:53;;;;;;;39.00;19.73;;;;;;;;;;770701;180;919014;-60
2021/11/03 02:18:19;;;;;;;35.30;17.97;;;;;;;;;;769546;179;919390;-60
2021/11/03 02:20:45;;;;;;;49.13;20.13;;;;;;;;;;769734;179;918836;-60
2021/11/03 02:23:16;;;;;;;42.00;21.27;;;;;;;;;;767159;180;1030725;-60
2021/11/03 02:25:42;;;;;;;42.80;21.10;;;;;;;;;;780486;180;918365;-60
2021/11/03 02:28:08;;;;;;;37.03;17.03;;;;;;;;;;768884;180;919335;-60
2021/11/03 02:30:34;;;;;;;40.93;20.33;;;;;;;;;;770867;179;1022144;-60
2021/11/03 02:33:00;;;;;;;31.52;17.98;;;;;;;;;;775516;180;919293;-61
2021/11/03 02:35:26;;;;;;;33.20;18.37;;;;;;;;;;771011;180;919052;-61
2021/11/03 02:37:51;;;;;;;36.23;17.27;;;;;;;;;;769707;180;919216;-60
2021/11/03 02:40:23;;;;;;;36.10;18.57;;;;;;;;;;768801;180;919651;-60
2021/11/03 02:42:49;;;;;;;40.38;17.60;;;;;;;;;;766560;181;918204;-60
2021/11/03 02:45:15;;;;;;;31.23;16.33;;;;;;;;;;763893;181;918593;-61
2021/11/03 02:47:41;;;;;;;35.70;15.75;;;;;;;;;;769319;179;915604;-60
2021/11/03 02:50:07;;;;;;;40.67;17.67;;;;;;;;;;778673;179;1063939;-60
2021/11/03 02:52:33;;;;;;;32.73;17.63;;;;;;;;;;766043;180;916043;-61
2021/11/03 02:54:59;;;;;;;41.70;16.40;;;;;;;;;;774761;179;919123;-61
2021/11/03 02:57:25;;;;;;;35.90;16.37;;;;;;;;;;770756;179;919423;-60
2021/11/03 02:59:51;;;;;;;36.10;17.30;;;;;;;;;;763890;180;919023;-61
2021/11/03 03:02:16;;;;;;;31.33;14.60;;;;;;;;;;771053;180;918977;-60
2021/11/03 03:04:42;;;;;;;26.10;13.43;;;;;;;;;;769274;180;942923;-61
2021/11/03 03:07:08;;;;;;;24.90;15.00;;;;;;;;;;779199;180;919222;-61
2021/11/03 03:09:34;;;;;;;23.30;12.87;;;;;;;;;;766564;180;919140;-62
2021/11/03 03:12:01;;;;;;;25.63;16.07;;;;;;;;;;766391;181;919523;-61
2021/11/03 03:14:27;;;;;;;24.00;13.50;;;;;;;;;;772712;180;918833;-60
2021/11/03 03:16:53;;;;;;;23.10;13.30;;;;;;;;;;775359;178;919757;-61
2021/11/03 03:19:19;;;;;;;27.67;15.20;;;;;;;;;;772550;180;931050;-61
2021/11/03 03:21:45;;;;;;;26.83;13.33;;;;;;;;;;772781;180;918938;-61
2021/11/03 03:24:11;;;;;;;21.30;12.60;;;;;;;;;;782660;178;919484;-62
2021/11/03 03:26:37;;;;;;;26.23;13.20;;;;;;;;;;767035;179;1552805;-61
2021/11/03 03:29:03;;;;;;;18.00;11.83;;;;;;;;;;767427;179;919277;-62
2021/11/03 03:31:28;;;;;;;22.90;13.03;;;;;;;;;;774582;180;920333;-61
2021/11/03 03:33:54;;;;;;;16.20;12.20;;;;;;;;;;769199;179;917860;-61
2021/11/03 03:36:20;;;;;;;24.83;13.67;;;;;;;;;;766858;179;915576;-61
2021/11/03 03:38:46;;;;;;;19.47;12.87;;;;;;;;;;777493;180;921951;-62
2021/11/03 03:41:12;;;;;;;21.93;13.00;;;;;;;;;;770379;179;917943;-63
2021/11/03 03:43:38;;;;;;;16.27;11.23;;;;;;;;;;766431;180;918813;-61
2021/11/03 03:46:03;;;;;;;19.00;12.68;;;;;;;;;;773089;180;915393;-61
2021/11/03 03:48:29;;;;;;;23.43;12.13;;;;;;;;;;773240;180;920165;-60
2021/11/03 03:50:55;;;;;;;19.80;12.30;;;;;;;;;;770808;180;937904;-61
2021/11/03 03:53:21;;;;;;;19.43;12.37;;;;;;;;;;767820;180;918832;-62
2021/11/03 03:55:47;;;;;;;18.03;10.73;;;;;;;;;;776909;180;918752;-62
2021/11/03 03:58:13;;;;;;;18.93;12.60;;;;;;;;;;765917;180;919687;-63
2021/11/03 04:00:38;;;;;;;19.83;13.20;;;;;;;;;;766787;180;923605;-63
2021/11/03 04:03:06;;;;;;;20.93;13.50;;;;;;;;;;772943;180;918656;-63
2021/11/03 04:05:30;;;;;;;23.70;14.77;;;;;;;;;;767333;180;919347;-62
2021/11/03 04:07:56;;;;;;;17.03;11.97;;;;;;;;;;771253;180;909096;-64
2021/11/03 04:10:22;;;;;;;18.77;13.10;;;;;;;;;;775536;180;913255;-63
2021/11/03 04:12:48;;;;;;;21.67;12.97;;;;;;;;;;768785;179;919951;-63
2021/11/03 04:15:14;;;;;;;18.27;12.30;;;;;;;;;;768791;181;922330;-63
2021/11/03 04:17:40;;;;;;;21.37;11.77;;;;;;;;;;769760;180;918748;-63
2021/11/03 04:20:07;;;;;;;25.63;11.60;;;;;;;;;;771232;180;919378;-64
2021/11/03 04:22:33;;;;;;;20.03;14.13;;;;;;;;;;761872;180;918963;-63
2021/11/03 04:24:58;;;;;;;26.17;13.97;;;;;;;;;;769119;180;922396;-64
2021/11/03 04:27:24;;;;;;;20.67;13.27;;;;;;;;;;776826;180;713842;-64
2021/11/03 04:29:50;;;;;;;65.50;15.17;;;;;;;;;;774778;179;917518;-64
2021/11/03 04:32:16;;;;;;;20.95;12.43;;;;;;;;;;766472;180;919571;-64
2021/11/03 04:34:42;;;;;;;35.97;14.27;;;;;;;;;;776269;180;919996;-64
2021/11/03 04:37:08;;;;;;;36.60;16.43;;;;;;;;;;768935;180;923989;-64
2021/11/03 04:39:33;;;;;;;269.97;30.43;;;;;;;;;;765438;181;919493;-63
2021/11/03 04:42:00;;;;;;;170.35;28.40;;;;;;;;;;775199;179;919129;-62
2021/11/03 04:44:26;;;;;;;149.50;22.80;;;;;;;;;;767785;177;915452;-65
2021/11/03 04:46:52;;;;;;;57.10;18.20;;;;;;;;;;766046;179;919214;-68
2021/11/03 04:49:17;;;;;;;56.63;20.27;;;;;;;;;;763914;180;917168;-66
2021/11/03 04:51:43;;;;;;;101.43;25.10;;;;;;;;;;773362;180;935244;-64
2021/11/03 04:54:09;;;;;;;162.93;33.67;;;;;;;;;;763894;180;921345;-65
2021/11/03 04:56:35;;;;;;;151.83;26.97;;;;;;;;;;768171;180;920324;-66
2021/11/03 04:59:01;;;;;;;345.37;40.33;;;;;;;;;;771748;180;918573;-65
2021/11/03 05:01:27;;;;;;;186.62;33.65;;;;;;;;;;768158;180;919704;-66
2021/11/03 05:03:53;;;;;;;237.27;36.10;;;;;;;;;;766192;180;1020755;-66
2021/11/03 05:06:20;;;;;;;279.33;39.40;;;;;;;;;;770605;180;916823;-67
2021/11/03 05:08:46;;;;;;;289.50;35.83;;;;;;;;;;778056;180;613540;-67
2021/11/03 05:11:12;;;;;;;170.73;28.30;;;;;;;;;;767302;180;917831;-67
2021/11/03 05:13:38;;;;;;;151.23;29.93;;;;;;;;;;767781;180;921275;-67
2021/11/03 05:16:04;;;;;;;212.57;31.07;;;;;;;;;;777678;180;620038;-66
2021/11/03 05:18:30;;;;;;;167.30;26.13;;;;;;;;;;768570;180;919306;-67
2021/11/03 05:20:56;;;;;;;183.23;31.80;;;;;;;;;;770826;180;920202;-66
2021/11/03 05:23:25;;;;;;;104.10;23.20;;;;;;;;;;773040;180;918797;-67
2021/11/03 05:25:48;;;;;;;185.47;30.27;;;;;;;;;;763878;180;918132;-67
2021/11/03 05:28:14;;;;;;;129.00;24.70;;;;;;;;;;758117;181;919420;-67
2021/11/03 05:30:41;;;;;;;126.50;26.00;;;;;;;;;;770663;180;918069;-65
2021/11/03 05:33:06;;;;;;;100.70;21.20;;;;;;;;;;763790;181;918230;-67
2021/11/03 05:35:32;;;;;;;45.17;19.10;;;;;;;;;;759647;182;919338;-67
2021/11/03 05:37:58;;;;;;;132.07;22.40;;;;;;;;;;763351;181;918444;-65
2021/11/03 05:40:24;;;;;;;89.70;20.83;;;;;;;;;;773926;180;918821;-67
2021/11/03 05:42:50;;;;;;;48.40;19.40;;;;;;;;;;772656;180;636288;-68
2021/11/03 05:45:16;;;;;;;85.15;17.67;;;;;;;;;;777699;180;620759;-69
2021/11/03 05:47:41;;;;;;;83.77;21.60;;;;;;;;;;771877;180;1624898;-66
2021/11/03 05:50:07;;;;;;;100.22;22.77;;;;;;;;;;766559;180;919225;-68
2021/11/03 05:52:33;;;;;;;96.23;19.20;;;;;;;;;;770417;180;920907;-67
2021/11/03 05:54:59;;;;;;;99.83;21.30;;;;;;;;;;769762;180;919494;-66
2021/11/03 05:57:25;;;;;;;141.97;25.73;;;;;;;;;;765931;180;918771;-66
2021/11/03 05:59:51;;;;;;;97.63;22.10;;;;;;;;;;765545;181;918916;-66
2021/11/03 06:02:17;;;;;;;79.00;21.93;;;;;;;;;;764959;181;1020641;-67
2021/11/03 06:04:42;;;;;;;122.30;23.17;;;;;;;;;;776013;180;919315;-68
2021/11/03 06:07:08;;;;;;;156.93;27.20;;;;;;;;;;769485;180;922847;-67
2021/11/03 06:09:34;;;;;;;49.90;18.77;;;;;;;;;;769134;180;918484;-66
2021/11/03 06:12:00;;;;;;;68.50;20.17;;;;;;;;;;775796;179;919390;-66
2021/11/03 06:14:26;;;;;;;56.20;19.40;;;;;;;;;;774856;179;919577;-66
2021/11/03 06:16:52;;;;;;;126.43;25.30;;;;;;;;;;768120;180;1020365;-66
2021/11/03 06:19:17;;;;;;;120.70;25.57;;;;;;;;;;773585;181;1030793;-66
2021/11/03 06:21:43;;;;;;;146.97;25.50;;;;;;;;;;770670;180;920164;-66
2021/11/03 06:24:09;;;;;;;136.30;24.90;;;;;;;;;;767164;180;919331;-68
2021/11/03 06:26:35;;;;;;;111.23;23.47;;;;;;;;;;766912;180;919534;-67
2021/11/03 06:29:01;;;;;;;89.63;23.00;;;;;;;;;;763288;179;918821;-66
2021/11/03 06:31:27;;;;;;;72.23;22.10;;;;;;;;;;766763;181;918476;-66
2021/11/03 06:33:53;;;;;;;75.72;20.08;;;;;;;;;;768212;180;918776;-67
2021/11/03 06:36:18;;;;;;;78.37;21.70;;;;;;;;;;776398;180;918762;-67
2021/11/03 06:38:44;;;;;;;57.13;22.50;;;;;;;;;;767447;180;918941;-67
2021/11/03 06:41:11;;;;;;;87.60;22.77;;;;;;;;;;769699;180;917653;-67
2021/11/03 06:43:38;;;;;;;66.93;21.13;;;;;;;;;;773528;180;918030;-65
2021/11/03 06:46:03;;;;;;;48.70;21.23;;;;;;;;;;767712;180;919482;-66
2021/11/03 06:48:29;;;;;;;123.47;26.73;;;;;;;;;;767308;179;918538;-66
2021/11/03 06:50:55;;;;;;;104.40;24.13;;;;;;;;;;772867;178;918639;-63
2021/11/03 06:53:22;;;;;;;78.35;27.05;;;;;;;;;;774023;179;915757;-64
2021/11/03 06:55:48;;;;;;;136.60;30.20;;;;;;;;;;765149;180;927186;-64
2021/11/03 06:58:13;;;;;;;146.62;32.20;;;;;;;;;;772344;180;919292;-62
2021/11/03 07:00:39;;;;;;;213.17;40.37;;;;;;;;;;772225;179;918455;-62
2021/11/03 07:03:05;;;;;;;116.03;33.67;;;;;;;;;;771714;180;917826;-63
2021/11/03 07:05:31;;;;;;;69.53;27.10;;;;;;;;;;770023;180;1023906;-63
2021/11/03 07:07:56;;;;;;;104.90;32.13;;;;;;;;;;775470;180;918513;-64
2021/11/03 07:10:23;;;;;;;70.83;29.00;;;;;;;;;;764844;180;919309;-63
2021/11/03 07:12:49;;;;;;;77.80;30.77;;;;;;;;;;765375;180;918977;-62
2021/11/03 07:15:15;;;;;;;91.45;35.55;;;;;;;;;;769525;180;919763;-62
2021/11/03 07:17:41;;;;;;;100.40;35.27;;;;;;;;;;769063;182;918933;-62
2021/11/03 07:20:07;;;;;;;91.73;31.93;;;;;;;;;;767696;180;918265;-62
2021/11/03 07:22:33;;;;;;;98.67;34.60;;;;;;;;;;765021;180;916532;-61
2021/11/03 07:24:59;;;;;;;104.03;38.00;;;;;;;;;;774750;180;918659;-61
2021/11/03 07:27:24;;;;;;;110.00;38.60;;;;;;;;;;772561;180;919587;-61
2021/11/03 07:29:50;;;;;;;99.53;40.17;;;;;;;;;;769541;180;918248;-62
2021/11/03 07:32:16;;;;;;;132.83;40.60;;;;;;;;;;768452;180;915908;-60
2021/11/03 07:34:42;;;;;;;115.73;40.70;;;;;;;;;;765355;180;915521;-61
2021/11/03 07:37:08;;;;;;;131.17;44.37;;;;;;;;;;770343;180;922406;-60
2021/11/03 07:39:34;;;;;;;123.20;42.97;;;;;;;;;;773159;180;915184;-61
2021/11/03 07:42:00;;;;;;;132.80;47.70;;;;;;;;;;766509;180;930872;-60
2021/11/03 07:44:26;;;;;;;114.10;44.47;;;;;;;;;;767749;181;921764;-61
2021/11/03 07:46:51;;;;;;;100.93;43.80;;;;;;;;;;769528;180;1021508;-61
2021/11/03 07:49:17;;;;;;;110.77;42.80;;;;;;;;;;776564;180;918861;-60
2021/11/03 07:51:43;;;;;;;119.27;42.87;;;;;;;;;;771158;180;918944;-61
2021/11/03 07:54:09;;;;;;;109.80;40.93;;;;;;;;;;765502;180;920971;-61
2021/11/03 07:56:35;;;;;;;89.23;35.07;;;;;;;;;;775981;180;918805;-61
2021/11/03 07:59:01;;;;;;;73.93;28.70;;;;;;;;;;766413;180;919427;-65
2021/11/03 08:01:26;;;;;;;77.83;30.27;;;;;;;;;;764789;180;919507;-61
2021/11/03 08:03:52;;;;;;;79.23;30.80;;;;;;;;;;776975;180;921824;-62
2021/11/03 08:06:18;;;;;;;75.22;29.90;;;;;;;;;;771087;180;919502;-61
2021/11/03 08:08:56;;;;;;;79.00;32.00;;;;;;;;;;769175;180;919317;-61
2021/11/03 08:11:16;;;;;;;55.93;24.83;;;;;;;;;;769879;180;920647;-61
2021/11/03 08:13:43;;;;;;;64.73;23.70;;;;;;;;;;778015;179;920319;-61
2021/11/03 08:16:08;;;;;;;51.40;21.03;;;;;;;;;;771514;179;919380;-61
2021/11/03 08:18:34;;;;;;;54.10;23.80;;;;;;;;;;771901;179;918566;-61
2021/11/03 08:20:59;;;;;;;45.00;19.50;;;;;;;;;;769546;181;904548;-61
2021/11/03 08:23:25;;;;;;;43.20;19.17;;;;;;;;;;767388;180;915625;-61
2021/11/03 08:25:51;;;;;;;43.08;20.83;;;;;;;;;;769048;180;915648;-61
2021/11/03 08:28:17;;;;;;;33.40;17.67;;;;;;;;;;769532;180;919388;-61
2021/11/03 08:30:43;;;;;;;37.40;17.73;;;;;;;;;;772730;181;919363;-62
2021/11/03 08:33:09;;;;;;;33.43;18.00;;;;;;;;;;763078;181;925977;-62
2021/11/03 08:35:35;;;;;;;34.23;18.60;;;;;;;;;;765919;180;920437;-61
2021/11/03 08:38:02;;;;;;;28.97;15.13;;;;;;;;;;778490;180;919206;-62
2021/11/03 08:40:26;;;;;;;30.37;16.60;;;;;;;;;;760840;183;919999;-61
2021/11/03 08:42:56;;;;;;;25.77;14.30;;;;;;;;;;769381;181;920720;-62
2021/11/03 08:45:22;;;;;;;39.70;18.43;;;;;;;;;;771440;180;1182636;-61
2021/11/03 08:47:48;;;;;;;27.30;18.63;;;;;;;;;;768604;180;918801;-61
2021/11/03 08:50:14;;;;;;;17.50;10.50;;;;;;;;;;771093;179;921236;-61
2021/11/03 08:52:40;;;;;;;17.10;9.80;;;;;;;;;;767881;180;919719;-62
2021/11/03 08:55:06;;;;;;;12.30;7.90;;;;;;;;;;773261;180;923273;-62
2021/11/03 08:57:32;;;;;;;16.60;9.80;;;;;;;;;;772259;179;918269;-62
2021/11/03 08:59:58;;;;;;;16.23;8.45;;;;;;;;;;768812;180;921981;-62
2021/11/03 09:02:23;;;;;;;12.50;8.90;;;;;;;;;;774851;180;920925;-62
2021/11/03 09:04:49;;;;;;;10.00;7.00;;;;;;;;;;771548;180;916629;-61
2021/11/03 09:07:15;;;;;;;11.37;8.60;;;;;;;;;;767097;180;919639;-61
2021/11/03 09:09:42;;;;;;;13.50;8.43;;;;;;;;;;770022;180;948960;-61
2021/11/03 09:12:08;;;;;;;12.87;8.27;;;;;;;;;;766690;180;916079;-61
2021/11/03 09:14:34;;;;;;;7.97;6.10;;;;;;;;;;770704;179;915159;-62
2021/11/03 09:16:59;;;;;;;16.20;5.90;;;;;;;;;;772767;180;914351;-62
2021/11/03 09:19:25;;;;;;;7.82;5.22;;;;;;;;;;777154;180;911096;-63
2021/11/03 09:21:51;;;;;;;8.70;5.17;;;;;;;;;;768448;180;1365328;-63
2021/11/03 09:24:17;;;;;;;11.40;5.83;;;;;;;;;;771511;180;919051;-62
2021/11/03 09:26:43;;;;;;;9.80;5.30;;;;;;;;;;775018;179;918366;-62
2021/11/03 09:29:10;;;;;;;9.43;6.10;;;;;;;;;;769293;180;919140;-63
2021/11/03 09:31:35;;;;;;;8.47;5.80;;;;;;;;;;770244;180;921253;-63
2021/11/03 09:34:00;;;;;;;6.03;4.53;;;;;;;;;;773392;180;917116;-63
2021/11/03 09:36:26;;;;;;;4.27;3.20;;;;;;;;;;772783;180;921000;-62
2021/11/03 09:38:52;;;;;;;6.30;5.00;;;;;;;;;;767616;180;919824;-62
2021/11/03 09:41:18;;;;;;;6.03;4.20;;;;;;;;;;756858;183;918502;-62
2021/11/03 09:43:48;;;;;;;6.87;4.20;;;;;;;;;;763085;183;917293;-63
2021/11/03 09:46:29;;;;;;;5.70;4.30;;;;;;;;;;767771;180;920675;-63
2021/11/03 09:48:55;;;;;;;5.10;4.17;;;;;;;;;;766356;180;924604;-62
2021/11/03 09:51:21;;;;;;;4.37;3.53;;;;;;;;;;762093;181;918529;-62
2021/11/03 09:53:47;;;;;;;4.20;3.50;;;;;;;;;;774164;180;918900;-62
2021/11/03 09:56:13;;;;;;;4.62;3.30;;;;;;;;;;767260;180;914768;-62
2021/11/03 09:58:44;;;;;;;17.15;4.15;;;;;;;;;;758359;179;2462205;-62
2021/11/03 10:01:13;;;;;;;5.93;3.50;;;;;;;;;;773743;179;916947;-61
2021/11/03 10:03:45;;;;;;;4.50;2.93;;;;;;;;;;771671;180;916095;-62
2021/11/03 10:06:13;;;;;;;6.53;3.83;;;;;;;;;;766400;180;1015569;-61
2021/11/03 10:08:40;;;;;;;4.00;3.17;;;;;;;;;;765876;180;914753;-62
2021/11/03 10:11:20;;;;;;;4.30;3.33;;;;;;;;;;765807;180;916766;-62
2021/11/03 10:13:46;;;;;;;5.30;3.27;;;;;;;;;;765388;180;925265;-61
2021/11/03 10:16:26;;;;;;;6.40;4.03;;;;;;;;;;766482;181;920428;-60
2021/11/03 10:18:55;;;;;;;5.03;3.20;;;;;;;;;;770753;179;915887;-62
2021/11/03 10:21:22;;;;;;;6.47;3.27;;;;;;;;;;763619;180;919609;-62
2021/11/03 10:23:48;;;;;;;4.20;3.23;;;;;;;;;;765726;179;939625;-62
2021/11/03 10:26:14;;;;;;;3.50;2.50;;;;;;;;;;775361;178;930210;-62
2021/11/03 10:28:40;;;;;;;5.53;2.70;;;;;;;;;;773072;180;945439;-61
2021/11/03 10:31:08;;;;;;;2.97;2.10;;;;;;;;;;769425;180;920476;-62
2021/11/03 10:33:34;;;;;;;3.43;2.50;;;;;;;;;;770053;177;918912;-62
2021/11/03 10:36:00;;;;;;;3.93;2.03;;;;;;;;;;770548;180;926482;-63
2021/11/03 10:38:26;;;;;;;3.60;2.20;;;;;;;;;;770037;180;919389;-62
2021/11/03 10:40:54;;;;;;;5.50;2.60;;;;;;;;;;769999;180;918768;-62
2021/11/03 10:43:22;;;;;;;4.57;2.60;;;;;;;;;;771339;180;917946;-61
2021/11/03 10:45:47;;;;;;;3.50;1.97;;;;;;;;;;768702;180;928007;-62
2021/11/03 10:48:13;;;;;;;2.70;1.93;;;;;;;;;;766713;181;919503;-62
2021/11/03 10:50:41;;;;;;;3.50;2.20;;;;;;;;;;773403;180;918806;-61
2021/11/03 10:53:12;;;;;;;3.60;2.00;;;;;;;;;;772184;180;918663;-62
2021/11/03 10:55:38;;;;;;;3.90;2.05;;;;;;;;;;772777;180;919005;-62
2021/11/03 10:58:09;;;;;;;4.23;2.27;;;;;;;;;;760482;183;924417;-62
2021/11/03 11:00:35;;;;;;;3.90;2.20;;;;;;;;;;758445;182;918065;-62
2021/11/03 11:03:14;;;;;;;3.37;1.80;;;;;;;;;;755978;181;919011;-62
2021/11/03 11:05:40;;;;;;;3.27;1.67;;;;;;;;;;752213;184;919322;-63
2021/11/03 11:08:06;;;;;;;3.37;1.80;;;;;;;;;;761202;181;919739;-62
2021/11/03 11:10:35;;;;;;;3.17;1.95;;;;;;;;;;759827;182;919961;-61
2021/11/03 11:13:00;;;;;;;4.03;2.10;;;;;;;;;;756549;183;918572;-62
2021/11/03 11:15:29;;;;;;;3.95;1.98;;;;;;;;;;755947;182;919208;-62
2021/11/03 11:17:57;;;;;;;2.80;1.67;;;;;;;;;;768109;179;922999;-62
2021/11/03 11:20:39;;;;;;;4.47;1.80;;;;;;;;;;774769;180;936636;-62
2021/11/03 11:23:19;;;;;;;3.80;2.17;;;;;;;;;;754257;185;918467;-63
2021/11/03 11:25:51;;;;;;;3.77;2.10;;;;;;;;;;755968;184;917348;-63
2021/11/03 11:28:18;;;;;;;5.27;2.27;;;;;;;;;;747896;183;915578;-63
2021/11/03 11:30:43;;;;;;;6.03;2.60;;;;;;;;;;763821;180;919286;-63
2021/11/03 11:33:11;;;;;;;5.13;2.93;;;;;;;;;;767773;180;919821;-62
2021/11/03 11:35:38;;;;;;;3.97;2.10;;;;;;;;;;775220;180;918769;-63
2021/11/03 11:38:09;;;;;;;7.53;2.20;;;;;;;;;;768806;179;920702;-63
2021/11/03 11:40:56;;;;;;;4.83;2.27;;;;;;;;;;770042;179;919088;-63
2021/11/03 11:43:29;;;;;;;3.67;2.23;;;;;;;;;;772103;179;1296920;-62
2021/11/03 11:45:50;;;;;;;5.10;2.40;;;;;;;;;;767536;180;919488;-63
2021/11/03 11:48:17;;;;;;;6.50;2.47;;;;;;;;;;776002;180;918757;-62
2021/11/03 11:50:53;;;;;;;7.40;2.90;;;;;;;;;;769712;180;918527;-61
2021/11/03 11:53:19;;;;;;;4.33;2.30;;;;;;;;;;767002;180;917896;-61
2021/11/03 11:55:45;;;;;;;4.40;2.27;;;;;;;;;;771631;180;919345;-63
2021/11/03 11:58:10;;;;;;;6.53;3.00;;;;;;;;;;772973;179;919997;-62
2021/11/03 12:00:36;;;;;;;4.60;2.90;;;;;;;;;;770224;181;919887;-63
2021/11/03 12:03:03;;;;;;;4.17;3.00;;;;;;;;;;769383;180;919022;-63
2021/11/03 12:05:45;;;;;;;3.50;2.43;;;;;;;;;;770021;180;923373;-63
2021/11/03 12:08:26;;;;;;;4.00;2.33;;;;;;;;;;771008;179;911831;-63
2021/11/03 12:11:09;;;;;;;5.30;2.70;;;;;;;;;;775061;180;917954;-62
2021/11/03 12:13:41;;;;;;;5.20;1.90;;;;;;;;;;773070;180;909433;-63
2021/11/03 12:16:08;;;;;;;3.13;2.20;;;;;;;;;;769026;180;919500;-61
2021/11/03 12:18:43;;;;;;;4.15;1.90;;;;;;;;;;757385;181;1092090;-63
2021/11/03 12:21:10;;;;;;;3.60;1.93;;;;;;;;;;767699;180;919572;-62
2021/11/03 12:23:37;;;;;;;6.30;2.40;;;;;;;;;;766946;180;919242;-62
2021/11/03 12:26:09;;;;;;;2.60;1.60;;;;;;;;;;771061;180;916629;-63
2021/11/03 12:28:41;;;;;;;4.33;2.13;;;;;;;;;;762598;181;918988;-63
2021/11/03 12:31:22;;;;;;;4.00;1.97;;;;;;;;;;763272;180;924766;-63
2021/11/03 12:33:54;;;;;;;5.13;2.70;;;;;;;;;;765562;179;920260;-62
2021/11/03 12:36:20;;;;;;;4.93;2.17;;;;;;;;;;766851;180;919285;-60
2021/11/03 12:38:46;;;;;;;5.10;2.30;;;;;;;;;;772678;180;922205;-62
2021/11/03 12:41:13;;;;;;;5.07;1.80;;;;;;;;;;767885;180;918507;-61
2021/11/03 12:43:39;;;;;;;4.23;2.37;;;;;;;;;;772122;180;919363;-61
2021/11/03 12:46:14;;;;;;;5.47;1.80;;;;;;;;;;774621;180;920030;-61
2021/11/03 12:48:41;;;;;;;7.33;2.03;;;;;;;;;;773227;180;916762;-61
2021/11/03 12:51:13;;;;;;;11.30;2.20;;;;;;;;;;772923;180;642357;-62
2021/11/03 12:53:38;;;;;;;3.40;1.60;;;;;;;;;;774256;180;622158;-62
2021/11/03 12:56:15;;;;;;;8.33;2.50;;;;;;;;;;775617;179;918310;-61
2021/11/03 12:58:45;;;;;;;6.10;2.77;;;;;;;;;;777954;180;918240;-61
2021/11/03 13:01:16;;;;;;;3.97;2.10;;;;;;;;;;774382;180;631575;-63
2021/11/03 13:03:42;;;;;;;3.33;2.47;;;;;;;;;;766958;181;623292;-62
2021/11/03 13:06:07;;;;;;;3.60;1.93;;;;;;;;;;773474;181;628282;-61
2021/11/03 13:08:39;;;;;;;5.40;1.90;;;;;;;;;;773206;180;918382;-62
2021/11/03 13:11:06;;;;;;;4.13;2.07;;;;;;;;;;776544;180;917914;-62
2021/11/03 13:13:32;;;;;;;6.77;2.90;;;;;;;;;;764351;180;919825;-62
2021/11/03 13:16:01;;;;;;;5.30;2.00;;;;;;;;;;764862;180;919845;-62
2021/11/03 13:18:24;;;;;;;3.45;2.15;;;;;;;;;;775178;180;815872;-63
2021/11/03 13:20:54;;;;;;;6.83;2.50;;;;;;;;;;771276;180;919137;-62
2021/11/03 13:23:20;;;;;;;4.37;2.20;;;;;;;;;;769940;180;916792;-61
2021/11/03 13:25:46;;;;;;;4.57;2.40;;;;;;;;;;771141;180;915678;-61
2021/11/03 13:28:27;;;;;;;3.50;1.87;;;;;;;;;;776922;179;931156;-61
2021/11/03 13:30:55;;;;;;;10.88;3.00;;;;;;;;;;765748;180;927891;-62
2021/11/03 13:33:23;;;;;;;4.60;2.17;;;;;;;;;;767358;180;920766;-63
2021/11/03 13:36:05;;;;;;;3.33;1.90;;;;;;;;;;769756;180;918646;-63
2021/11/03 13:38:30;;;;;;;12.20;2.50;;;;;;;;;;767278;180;919976;-63
2021/11/03 13:40:56;;;;;;;6.60;2.50;;;;;;;;;;772158;181;919301;-64
2021/11/03 13:43:22;;;;;;;4.80;2.87;;;;;;;;;;767444;179;919564;-62
2021/11/03 13:45:50;;;;;;;3.83;2.13;;;;;;;;;;768953;180;919250;-62
2021/11/03 13:48:17;;;;;;;3.83;1.77;;;;;;;;;;774056;180;917590;-63
2021/11/03 13:51:02;;;;;;;3.03;2.00;;;;;;;;;;769943;180;918135;-62
2021/11/03 13:53:32;;;;;;;6.00;2.80;;;;;;;;;;771107;181;923964;-62
2021/11/03 13:56:13;;;;;;;9.83;2.47;;;;;;;;;;765287;180;924686;-61
2021/11/03 13:58:54;;;;;;;4.62;2.20;;;;;;;;;;767616;180;917564;-62
2021/11/03 14:01:21;;;;;;;6.70;3.50;;;;;;;;;;764376;179;921800;-62
2021/11/03 14:03:51;;;;;;;7.60;2.53;;;;;;;;;;760852;180;1309505;-63
2021/11/03 14:06:22;;;;;;;3.70;1.97;;;;;;;;;;774193;180;925128;-62
2021/11/03 14:08:47;;;;;;;5.43;2.60;;;;;;;;;;777218;180;915024;-64
2021/11/03 14:11:13;;;;;;;3.53;1.75;;;;;;;;;;765166;181;920459;-62